sensor_id;sensor_type;location;lat;lon;timestamp;pressure;altitude;pressure_sealevel;temperature;humidity
3544;BME280;1786;52.870;9.578;2024-03-02T00:00:51;99443.31;;;16.06;54.73
3544;BME280;1786;52.870;9.578;2024-03-02T00:03:19;99456.59;;;15.97;54.95
3544;BME280;1786;52.870;9.578;2024-03-02T00:05:52;99449.13;;;16.01;54.84
3544;BME280;1786;52.870;9.578;2024-03-02T00:08:25;99441.50;;;16.06;54.85
3544;BME280;1786;52.870;9.578;2024-03-02T00:10:58;99438.50;;;16.09;55.12
3544;BME280;1786;52.870;9.578;2024-03-02T00:13:25;99442.63;;;15.95;54.88
3544;BME280;1786;52.870;9.578;2024-03-02T00:15:53;99439.72;;;15.81;55.34
3544;BME280;1786;52.870;9.578;2024-03-02T00:18:32;99438.56;;;15.83;55.48
3544;BME280;1786;52.870;9.578;2024-03-02T00:21:00;99443.38;;;15.53;56.33
3544;BME280;1786;52.870;9.578;2024-03-02T00:23:31;99445.16;;;15.45;56.33
3544;BME280;1786;52.870;9.578;2024-03-02T00:25:59;99443.03;;;15.56;56.41
3544;BME280;1786;52.870;9.578;2024-03-02T00:28:30;99440.44;;;15.91;55.54
3544;BME280;1786;52.870;9.578;2024-03-02T00:31:08;99441.25;;;15.91;54.97
3544;BME280;1786;52.870;9.578;2024-03-02T00:33:36;99437.38;;;16.20;54.28
3544;BME280;1786;52.870;9.578;2024-03-02T00:36:05;99443.09;;;16.33;53.88
3544;BME280;1786;52.870;9.578;2024-03-02T00:38:33;99453.13;;;16.56;53.26
3544;BME280;1786;52.870;9.578;2024-03-02T00:41:05;99447.13;;;16.62;53.78
3544;BME280;1786;52.870;9.578;2024-03-02T00:43:56;99452.81;;;16.59;53.37
3544;BME280;1786;52.870;9.578;2024-03-02T00:46:23;99457.59;;;16.47;53.45
3544;BME280;1786;52.870;9.578;2024-03-02T00:48:58;99454.59;;;16.50;53.38
3544;BME280;1786;52.870;9.578;2024-03-02T00:51:27;99451.59;;;16.45;53.48
3544;BME280;1786;52.870;9.578;2024-03-02T00:53:57;99453.78;;;16.50;54.05
3544;BME280;1786;52.870;9.578;2024-03-02T00:56:24;99455.31;;;16.10;54.81
3544;BME280;1786;52.870;9.578;2024-03-02T00:58:51;99449.09;;;15.14;56.67
3544;BME280;1786;52.870;9.578;2024-03-02T01:01:19;99446.72;;;15.11;57.12
3544;BME280;1786;52.870;9.578;2024-03-02T01:03:49;99449.00;;;15.06;57.25
3544;BME280;1786;52.870;9.578;2024-03-02T01:06:17;99443.25;;;15.37;56.67
3544;BME280;1786;52.870;9.578;2024-03-02T01:08:44;99443.56;;;15.60;56.17
3544;BME280;1786;52.870;9.578;2024-03-02T01:11:11;99446.13;;;15.70;55.58
3544;BME280;1786;52.870;9.578;2024-03-02T01:13:37;99444.59;;;15.67;55.38
3544;BME280;1786;52.870;9.578;2024-03-02T01:16:04;99438.25;;;15.60;55.77
3544;BME280;1786;52.870;9.578;2024-03-02T01:18:31;99444.16;;;16.06;54.48
3544;BME280;1786;52.870;9.578;2024-03-02T01:20:57;99445.56;;;16.35;54.11
3544;BME280;1786;52.870;9.578;2024-03-02T01:23:25;99446.59;;;15.91;54.94
3544;BME280;1786;52.870;9.578;2024-03-02T01:25:51;99443.59;;;15.94;55.16
3544;BME280;1786;52.870;9.578;2024-03-02T01:28:18;99448.31;;;16.09;54.56
3544;BME280;1786;52.870;9.578;2024-03-02T01:30:45;99452.97;;;16.57;53.26
3544;BME280;1786;52.870;9.578;2024-03-02T01:33:12;99450.53;;;16.13;54.38
3544;BME280;1786;52.870;9.578;2024-03-02T01:35:39;99457.25;;;16.34;53.66
3544;BME280;1786;52.870;9.578;2024-03-02T01:38:06;99447.81;;;16.05;54.51
3544;BME280;1786;52.870;9.578;2024-03-02T01:40:34;99445.75;;;15.91;54.63
3544;BME280;1786;52.870;9.578;2024-03-02T01:43:00;99436.91;;;15.30;56.09
3544;BME280;1786;52.870;9.578;2024-03-02T01:45:29;99440.91;;;15.34;56.49
3544;BME280;1786;52.870;9.578;2024-03-02T01:47:56;99434.47;;;15.19;56.67
3544;BME280;1786;52.870;9.578;2024-03-02T01:50:31;99430.59;;;14.87;57.26
3544;BME280;1786;52.870;9.578;2024-03-02T01:52:58;99426.06;;;15.05;57.17
3544;BME280;1786;52.870;9.578;2024-03-02T01:55:25;99419.16;;;15.12;57.06
3544;BME280;1786;52.870;9.578;2024-03-02T01:57:52;99419.59;;;15.08;57.08
3544;BME280;1786;52.870;9.578;2024-03-02T02:00:20;99419.19;;;14.77;58.10
3544;BME280;1786;52.870;9.578;2024-03-02T02:02:48;99418.69;;;14.99;57.13
3544;BME280;1786;52.870;9.578;2024-03-02T02:05:14;99416.84;;;15.18;57.00
3544;BME280;1786;52.870;9.578;2024-03-02T02:07:42;99412.41;;;15.00;56.70
3544;BME280;1786;52.870;9.578;2024-03-02T02:10:12;99411.22;;;15.21;56.66
3544;BME280;1786;52.870;9.578;2024-03-02T02:12:39;99414.84;;;15.72;55.34
3544;BME280;1786;52.870;9.578;2024-03-02T02:15:26;99418.41;;;16.23;54.29
3544;BME280;1786;52.870;9.578;2024-03-02T02:17:54;99426.28;;;16.41;53.40
3544;BME280;1786;52.870;9.578;2024-03-02T02:20:23;99411.78;;;16.43;53.41
3544;BME280;1786;52.870;9.578;2024-03-02T02:23:01;99421.16;;;16.64;53.02
3544;BME280;1786;52.870;9.578;2024-03-02T02:25:28;99408.50;;;16.82;52.52
3544;BME280;1786;52.870;9.578;2024-03-02T02:27:56;99408.84;;;16.79;52.51
3544;BME280;1786;52.870;9.578;2024-03-02T02:30:28;99407.13;;;16.70;52.73
3544;BME280;1786;52.870;9.578;2024-03-02T02:32:56;99404.47;;;16.54;52.60
3544;BME280;1786;52.870;9.578;2024-03-02T02:35:23;99405.97;;;16.64;52.83
3544;BME280;1786;52.870;9.578;2024-03-02T02:37:52;99407.63;;;16.65;52.59
3544;BME280;1786;52.870;9.578;2024-03-02T02:40:19;99403.75;;;16.35;53.44
3544;BME280;1786;52.870;9.578;2024-03-02T02:42:46;99401.09;;;16.35;53.48
3544;BME280;1786;52.870;9.578;2024-03-02T02:45:13;99391.63;;;16.41;53.42
3544;BME280;1786;52.870;9.578;2024-03-02T02:47:41;99399.91;;;16.21;53.54
3544;BME280;1786;52.870;9.578;2024-03-02T02:50:09;99397.44;;;16.53;53.13
3544;BME280;1786;52.870;9.578;2024-03-02T02:52:37;99390.47;;;16.60;52.82
3544;BME280;1786;52.870;9.578;2024-03-02T02:55:12;99393.50;;;16.81;52.24
3544;BME280;1786;52.870;9.578;2024-03-02T02:57:41;99386.81;;;16.69;52.16
3544;BME280;1786;52.870;9.578;2024-03-02T03:00:14;99386.78;;;16.36;53.00
3544;BME280;1786;52.870;9.578;2024-03-02T03:02:45;99378.94;;;15.76;54.43
3544;BME280;1786;52.870;9.578;2024-03-02T03:05:13;99384.31;;;15.92;54.11
3544;BME280;1786;52.870;9.578;2024-03-02T03:07:41;99374.56;;;16.17;53.07
3544;BME280;1786;52.870;9.578;2024-03-02T03:10:08;99377.28;;;16.42;52.88
3544;BME280;1786;52.870;9.578;2024-03-02T03:12:35;99389.13;;;16.64;52.23
3544;BME280;1786;52.870;9.578;2024-03-02T03:15:03;99379.78;;;16.60;52.16
3544;BME280;1786;52.870;9.578;2024-03-02T03:17:31;99369.13;;;16.60;51.80
3544;BME280;1786;52.870;9.578;2024-03-02T03:19:58;99377.97;;;15.85;53.74
3544;BME280;1786;52.870;9.578;2024-03-02T03:22:24;99372.13;;;14.95;56.33
3544;BME280;1786;52.870;9.578;2024-03-02T03:24:51;99370.53;;;15.02;55.94
3544;BME280;1786;52.870;9.578;2024-03-02T03:27:18;99372.00;;;14.25;57.96
3544;BME280;1786;52.870;9.578;2024-03-02T03:29:46;99366.50;;;14.54;57.74
3544;BME280;1786;52.870;9.578;2024-03-02T03:32:13;99368.63;;;14.41;58.29
3544;BME280;1786;52.870;9.578;2024-03-02T03:34:40;99364.47;;;14.20;58.66
3544;BME280;1786;52.870;9.578;2024-03-02T03:37:07;99373.75;;;14.16;58.56
3544;BME280;1786;52.870;9.578;2024-03-02T03:39:34;99364.31;;;14.04;59.13
3544;BME280;1786;52.870;9.578;2024-03-02T03:42:03;99364.59;;;14.01;59.36
3544;BME280;1786;52.870;9.578;2024-03-02T03:44:30;99365.78;;;14.16;59.11
3544;BME280;1786;52.870;9.578;2024-03-02T03:46:56;99377.69;;;14.48;58.11
3544;BME280;1786;52.870;9.578;2024-03-02T03:49:23;99374.06;;;14.49;58.44
3544;BME280;1786;52.870;9.578;2024-03-02T03:51:50;99374.06;;;14.85;57.42
3544;BME280;1786;52.870;9.578;2024-03-02T03:54:16;99372.69;;;14.81;57.41
3544;BME280;1786;52.870;9.578;2024-03-02T03:56:43;99368.63;;;14.95;56.83
3544;BME280;1786;52.870;9.578;2024-03-02T03:59:10;99366.38;;;14.64;57.80
3544;BME280;1786;52.870;9.578;2024-03-02T04:01:37;99367.69;;;15.04;56.57
3544;BME280;1786;52.870;9.578;2024-03-02T04:04:03;99367.97;;;14.92;56.75
3544;BME280;1786;52.870;9.578;2024-03-02T04:06:30;99371.94;;;14.70;57.53
3544;BME280;1786;52.870;9.578;2024-03-02T04:08:57;99375.84;;;15.02;57.00
3544;BME280;1786;52.870;9.578;2024-03-02T04:11:23;99369.97;;;14.73;57.36
3544;BME280;1786;52.870;9.578;2024-03-02T04:13:50;99373.44;;;15.17;56.18
3544;BME280;1786;52.870;9.578;2024-03-02T04:16:17;99377.31;;;15.23;56.24
3544;BME280;1786;52.870;9.578;2024-03-02T04:18:43;99366.75;;;15.39;55.66
3544;BME280;1786;52.870;9.578;2024-03-02T04:21:10;99374.66;;;15.23;55.76
3544;BME280;1786;52.870;9.578;2024-03-02T04:23:38;99372.03;;;15.05;56.32
3544;BME280;1786;52.870;9.578;2024-03-02T04:26:04;99376.91;;;15.09;56.36
3544;BME280;1786;52.870;9.578;2024-03-02T04:28:31;99369.56;;;15.11;55.95
3544;BME280;1786;52.870;9.578;2024-03-02T04:30:58;99368.16;;;14.99;56.27
3544;BME280;1786;52.870;9.578;2024-03-02T04:33:24;99373.88;;;14.50;57.72
3544;BME280;1786;52.870;9.578;2024-03-02T04:35:51;99376.09;;;14.19;58.47
3544;BME280;1786;52.870;9.578;2024-03-02T04:38:18;99370.97;;;14.08;59.27
3544;BME280;1786;52.870;9.578;2024-03-02T04:40:44;99387.94;;;14.43;58.00
3544;BME280;1786;52.870;9.578;2024-03-02T04:43:11;99385.72;;;15.10;56.18
3544;BME280;1786;52.870;9.578;2024-03-02T04:45:41;99382.88;;;15.11;55.87
3544;BME280;1786;52.870;9.578;2024-03-02T04:48:09;99389.00;;;15.30;55.67
3544;BME280;1786;52.870;9.578;2024-03-02T04:50:35;99392.78;;;15.01;56.47
3544;BME280;1786;52.870;9.578;2024-03-02T04:53:02;99382.81;;;14.77;57.38
3544;BME280;1786;52.870;9.578;2024-03-02T04:55:29;99381.09;;;14.40;57.85
3544;BME280;1786;52.870;9.578;2024-03-02T04:57:55;99379.66;;;14.28;58.52
3544;BME280;1786;52.870;9.578;2024-03-02T05:00:22;99371.28;;;14.05;59.24
3544;BME280;1786;52.870;9.578;2024-03-02T05:02:49;99368.81;;;14.39;58.05
3544;BME280;1786;52.870;9.578;2024-03-02T05:05:16;99374.66;;;14.43;58.02
3544;BME280;1786;52.870;9.578;2024-03-02T05:07:43;99374.78;;;14.23;58.34
3544;BME280;1786;52.870;9.578;2024-03-02T05:10:11;99370.69;;;14.11;58.67
3544;BME280;1786;52.870;9.578;2024-03-02T05:12:41;99365.19;;;13.95;58.93
3544;BME280;1786;52.870;9.578;2024-03-02T05:15:11;99377.53;;;14.14;58.57
3544;BME280;1786;52.870;9.578;2024-03-02T05:17:40;99376.91;;;14.02;58.80
3544;BME280;1786;52.870;9.578;2024-03-02T05:20:07;99378.22;;;13.88;58.93
3544;BME280;1786;52.870;9.578;2024-03-02T05:22:35;99371.31;;;13.40;60.68
3544;BME280;1786;52.870;9.578;2024-03-02T05:25:02;99364.09;;;13.60;60.57
3544;BME280;1786;52.870;9.578;2024-03-02T05:27:30;99364.94;;;13.60;60.48
3544;BME280;1786;52.870;9.578;2024-03-02T05:30:00;99362.53;;;13.39;60.71
3544;BME280;1786;52.870;9.578;2024-03-02T05:32:27;99363.31;;;13.50;60.74
3544;BME280;1786;52.870;9.578;2024-03-02T05:34:53;99358.84;;;12.93;62.19
3544;BME280;1786;52.870;9.578;2024-03-02T05:37:21;99359.31;;;12.69;62.92
3544;BME280;1786;52.870;9.578;2024-03-02T05:39:48;99362.28;;;13.23;61.56
3544;BME280;1786;52.870;9.578;2024-03-02T05:42:15;99358.69;;;13.05;61.87
3544;BME280;1786;52.870;9.578;2024-03-02T05:44:43;99351.34;;;12.79;62.54
3544;BME280;1786;52.870;9.578;2024-03-02T05:47:10;99362.72;;;13.09;61.16
3544;BME280;1786;52.870;9.578;2024-03-02T05:49:36;99368.22;;;13.45;61.27
3544;BME280;1786;52.870;9.578;2024-03-02T05:52:03;99373.94;;;13.77;60.11
3544;BME280;1786;52.870;9.578;2024-03-02T05:54:30;99375.38;;;13.99;59.27
3544;BME280;1786;52.870;9.578;2024-03-02T05:56:57;99385.91;;;13.91;59.43
3544;BME280;1786;52.870;9.578;2024-03-02T05:59:24;99403.53;;;14.10;58.72
3544;BME280;1786;52.870;9.578;2024-03-02T06:01:50;99391.34;;;14.17;58.65
3544;BME280;1786;52.870;9.578;2024-03-02T06:04:18;99393.38;;;14.23;58.33
3544;BME280;1786;52.870;9.578;2024-03-02T06:06:45;99385.16;;;13.99;59.34
3544;BME280;1786;52.870;9.578;2024-03-02T06:09:12;99381.34;;;13.83;59.76
3544;BME280;1786;52.870;9.578;2024-03-02T06:11:40;99388.75;;;13.42;60.92
3544;BME280;1786;52.870;9.578;2024-03-02T06:14:08;99385.28;;;13.23;61.26
3544;BME280;1786;52.870;9.578;2024-03-02T06:16:35;99383.34;;;13.15;61.35
3544;BME280;1786;52.870;9.578;2024-03-02T06:19:02;99382.13;;;13.09;61.81
3544;BME280;1786;52.870;9.578;2024-03-02T06:21:29;99378.91;;;13.15;61.42
3544;BME280;1786;52.870;9.578;2024-03-02T06:23:55;99390.25;;;12.88;62.35
3544;BME280;1786;52.870;9.578;2024-03-02T06:26:23;99390.09;;;13.09;62.04
3544;BME280;1786;52.870;9.578;2024-03-02T06:28:52;99390.91;;;13.29;61.17
3544;BME280;1786;52.870;9.578;2024-03-02T06:31:19;99394.66;;;13.17;61.54
3544;BME280;1786;52.870;9.578;2024-03-02T06:33:45;99399.41;;;13.23;61.74
3544;BME280;1786;52.870;9.578;2024-03-02T06:36:12;99405.56;;;13.33;61.43
3544;BME280;1786;52.870;9.578;2024-03-02T06:38:40;99405.16;;;13.18;62.03
3544;BME280;1786;52.870;9.578;2024-03-02T06:41:09;99411.97;;;13.21;62.25
3544;BME280;1786;52.870;9.578;2024-03-02T06:43:36;99414.13;;;12.98;62.90
3544;BME280;1786;52.870;9.578;2024-03-02T06:46:03;99415.66;;;13.01;62.55
3544;BME280;1786;52.870;9.578;2024-03-02T06:48:30;99418.75;;;13.53;61.87
3544;BME280;1786;52.870;9.578;2024-03-02T06:50:57;99417.81;;;13.81;60.60
3544;BME280;1786;52.870;9.578;2024-03-02T06:53:24;99422.53;;;13.50;61.91
3544;BME280;1786;52.870;9.578;2024-03-02T06:55:51;99426.19;;;13.87;60.66
3544;BME280;1786;52.870;9.578;2024-03-02T06:58:18;99423.88;;;14.01;60.45
3544;BME280;1786;52.870;9.578;2024-03-02T07:00:45;99430.25;;;14.09;60.03
3544;BME280;1786;52.870;9.578;2024-03-02T07:03:11;99426.72;;;14.36;59.87
3544;BME280;1786;52.870;9.578;2024-03-02T07:05:39;99427.88;;;14.51;59.84
3544;BME280;1786;52.870;9.578;2024-03-02T07:08:06;99434.28;;;14.94;59.23
3544;BME280;1786;52.870;9.578;2024-03-02T07:10:33;99439.06;;;15.87;56.75
3544;BME280;1786;52.870;9.578;2024-03-02T07:12:59;99443.38;;;16.97;54.71
3544;BME280;1786;52.870;9.578;2024-03-02T07:15:26;99443.78;;;17.83;52.21
3544;BME280;1786;52.870;9.578;2024-03-02T07:17:54;99448.94;;;17.76;52.30
3544;BME280;1786;52.870;9.578;2024-03-02T07:20:20;99450.34;;;17.47;52.67
3544;BME280;1786;52.870;9.578;2024-03-02T07:22:47;99455.13;;;17.85;51.40
3544;BME280;1786;52.870;9.578;2024-03-02T07:25:13;99445.09;;;17.87;51.22
3544;BME280;1786;52.870;9.578;2024-03-02T07:27:43;99454.38;;;17.99;50.75
3544;BME280;1786;52.870;9.578;2024-03-02T07:30:14;99453.78;;;17.72;51.48
3544;BME280;1786;52.870;9.578;2024-03-02T07:32:40;99456.50;;;17.48;52.17
3544;BME280;1786;52.870;9.578;2024-03-02T07:35:08;99451.06;;;17.97;51.78
3544;BME280;1786;52.870;9.578;2024-03-02T07:37:35;99460.44;;;19.10;49.41
3544;BME280;1786;52.870;9.578;2024-03-02T07:40:01;99460.72;;;19.53;47.73
3544;BME280;1786;52.870;9.578;2024-03-02T07:42:29;99462.63;;;19.82;47.64
3544;BME280;1786;52.870;9.578;2024-03-02T07:44:56;99465.50;;;20.10;47.16
3544;BME280;1786;52.870;9.578;2024-03-02T07:47:23;99468.97;;;20.25;46.71
3544;BME280;1786;52.870;9.578;2024-03-02T07:49:50;99468.44;;;20.15;47.08
3544;BME280;1786;52.870;9.578;2024-03-02T07:52:17;99484.38;;;21.11;44.89
3544;BME280;1786;52.870;9.578;2024-03-02T07:54:43;99480.22;;;21.08;44.71
3544;BME280;1786;52.870;9.578;2024-03-02T07:57:10;99488.06;;;21.81;44.40
3544;BME280;1786;52.870;9.578;2024-03-02T07:59:37;99487.59;;;22.06;43.55
3544;BME280;1786;52.870;9.578;2024-03-02T08:02:04;99491.59;;;21.81;43.14
3544;BME280;1786;52.870;9.578;2024-03-02T08:04:30;99491.13;;;22.47;42.70
3544;BME280;1786;52.870;9.578;2024-03-02T08:06:57;99491.00;;;22.69;42.96
3544;BME280;1786;52.870;9.578;2024-03-02T08:09:24;99498.31;;;22.88;41.69
3544;BME280;1786;52.870;9.578;2024-03-02T08:11:51;99504.59;;;23.29;40.33
3544;BME280;1786;52.870;9.578;2024-03-02T08:14:18;99500.44;;;24.58;40.30
3544;BME280;1786;52.870;9.578;2024-03-02T08:16:45;99508.22;;;25.68;39.24
3544;BME280;1786;52.870;9.578;2024-03-02T08:19:12;99510.88;;;25.50;37.32
3544;BME280;1786;52.870;9.578;2024-03-02T08:21:38;99510.28;;;26.16;37.48
3544;BME280;1786;52.870;9.578;2024-03-02T08:24:05;99521.09;;;25.16;38.36
3544;BME280;1786;52.870;9.578;2024-03-02T08:26:32;99509.63;;;24.89;38.74
3544;BME280;1786;52.870;9.578;2024-03-02T08:28:59;99509.03;;;22.82;40.86
3544;BME280;1786;52.870;9.578;2024-03-02T08:31:28;99501.59;;;22.84;40.90
3544;BME280;1786;52.870;9.578;2024-03-02T08:33:54;99491.84;;;22.76;41.63
3544;BME280;1786;52.870;9.578;2024-03-02T08:36:22;99499.88;;;21.87;42.60
3544;BME280;1786;52.870;9.578;2024-03-02T08:38:49;99494.94;;;20.91;44.30
3544;BME280;1786;52.870;9.578;2024-03-02T08:41:16;99501.22;;;21.20;43.94
3544;BME280;1786;52.870;9.578;2024-03-02T08:43:43;99508.47;;;21.69;43.49
3544;BME280;1786;52.870;9.578;2024-03-02T08:46:10;99500.69;;;20.66;44.12
3544;BME280;1786;52.870;9.578;2024-03-02T08:48:36;99495.38;;;19.92;46.33
3544;BME280;1786;52.870;9.578;2024-03-02T08:51:03;99493.28;;;19.64;46.92
3544;BME280;1786;52.870;9.578;2024-03-02T08:53:32;99488.78;;;18.50;48.54
3544;BME280;1786;52.870;9.578;2024-03-02T08:55:59;99493.72;;;18.30;49.02
3544;BME280;1786;52.870;9.578;2024-03-02T08:58:28;99502.78;;;18.52;49.16
3544;BME280;1786;52.870;9.578;2024-03-02T09:00:55;99503.81;;;18.82;48.83
3544;BME280;1786;52.870;9.578;2024-03-02T09:03:21;99500.13;;;19.29;48.41
3544;BME280;1786;52.870;9.578;2024-03-02T09:05:49;99499.84;;;19.24;47.59
3544;BME280;1786;52.870;9.578;2024-03-02T09:08:16;99494.66;;;18.99;48.35
3544;BME280;1786;52.870;9.578;2024-03-02T09:10:42;99508.03;;;19.83;47.82
3544;BME280;1786;52.870;9.578;2024-03-02T09:13:10;99505.38;;;18.99;48.14
3544;BME280;1786;52.870;9.578;2024-03-02T09:15:37;99510.50;;;18.86;47.91
3544;BME280;1786;52.870;9.578;2024-03-02T09:18:06;99498.44;;;18.90;48.74
3544;BME280;1786;52.870;9.578;2024-03-02T09:20:33;99509.72;;;18.77;48.23
3544;BME280;1786;52.870;9.578;2024-03-02T09:23:00;99501.03;;;18.98;48.30
3544;BME280;1786;52.870;9.578;2024-03-02T09:25:26;99504.97;;;18.88;48.35
3544;BME280;1786;52.870;9.578;2024-03-02T09:27:53;99506.50;;;18.74;49.15
3544;BME280;1786;52.870;9.578;2024-03-02T09:30:19;99506.63;;;19.12;48.37
3544;BME280;1786;52.870;9.578;2024-03-02T09:32:46;99510.84;;;18.83;48.77
3544;BME280;1786;52.870;9.578;2024-03-02T09:35:16;99507.81;;;18.55;49.34
3544;BME280;1786;52.870;9.578;2024-03-02T09:37:42;99500.50;;;18.72;48.84
3544;BME280;1786;52.870;9.578;2024-03-02T09:40:10;99505.13;;;18.86;49.55
3544;BME280;1786;52.870;9.578;2024-03-02T09:42:37;99497.63;;;18.50;49.10
3544;BME280;1786;52.870;9.578;2024-03-02T09:45:04;99496.03;;;18.64;49.10
3544;BME280;1786;52.870;9.578;2024-03-02T09:47:31;99502.41;;;18.24;49.27
3544;BME280;1786;52.870;9.578;2024-03-02T09:49:58;99501.00;;;18.44;49.03
3544;BME280;1786;52.870;9.578;2024-03-02T09:52:26;99510.22;;;18.73;49.88
3544;BME280;1786;52.870;9.578;2024-03-02T09:54:52;99513.16;;;18.55;49.74
3544;BME280;1786;52.870;9.578;2024-03-02T09:57:19;99505.44;;;18.91;49.32
3544;BME280;1786;52.870;9.578;2024-03-02T09:59:46;99515.03;;;19.70;48.02
3544;BME280;1786;52.870;9.578;2024-03-02T10:02:12;99528.84;;;19.20;48.47
3544;BME280;1786;52.870;9.578;2024-03-02T10:04:39;99518.41;;;19.63;47.08
3544;BME280;1786;52.870;9.578;2024-03-02T10:07:16;99517.03;;;18.84;48.69
3544;BME280;1786;52.870;9.578;2024-03-02T10:09:48;99516.56;;;18.80;49.16
3544;BME280;1786;52.870;9.578;2024-03-02T10:12:17;99520.31;;;18.63;49.36
3544;BME280;1786;52.870;9.578;2024-03-02T10:14:44;99528.09;;;18.41;49.84
3544;BME280;1786;52.870;9.578;2024-03-02T10:17:12;99523.56;;;18.81;50.18
3544;BME280;1786;52.870;9.578;2024-03-02T10:19:40;99510.44;;;18.94;49.10
3544;BME280;1786;52.870;9.578;2024-03-02T10:22:08;99520.78;;;19.43;48.84
3544;BME280;1786;52.870;9.578;2024-03-02T10:24:40;99524.78;;;19.01;48.76
3544;BME280;1786;52.870;9.578;2024-03-02T10:27:09;99516.66;;;18.55;50.01
3544;BME280;1786;52.870;9.578;2024-03-02T10:29:37;99515.28;;;18.59;49.83
3544;BME280;1786;52.870;9.578;2024-03-02T10:32:05;99517.69;;;18.86;49.60
3544;BME280;1786;52.870;9.578;2024-03-02T10:34:33;99521.34;;;18.53;49.40
3544;BME280;1786;52.870;9.578;2024-03-02T10:36:59;99524.22;;;18.83;48.95
3544;BME280;1786;52.870;9.578;2024-03-02T10:39:28;99524.47;;;18.96;48.85
3544;BME280;1786;52.870;9.578;2024-03-02T10:41:56;99529.69;;;18.58;49.18
3544;BME280;1786;52.870;9.578;2024-03-02T10:44:23;99522.53;;;18.90;49.48
3544;BME280;1786;52.870;9.578;2024-03-02T10:46:51;99526.88;;;18.52;49.40
3544;BME280;1786;52.870;9.578;2024-03-02T10:49:20;99519.16;;;18.17;49.84
3544;BME280;1786;52.870;9.578;2024-03-02T10:51:48;99517.78;;;19.00;49.76
3544;BME280;1786;52.870;9.578;2024-03-02T10:54:15;99527.28;;;19.03;48.15
3544;BME280;1786;52.870;9.578;2024-03-02T10:56:44;99530.25;;;19.31;48.48
3544;BME280;1786;52.870;9.578;2024-03-02T10:59:16;99526.63;;;19.01;48.24
3544;BME280;1786;52.870;9.578;2024-03-02T11:01:47;99521.88;;;19.11;48.88
3544;BME280;1786;52.870;9.578;2024-03-02T11:04:16;99523.47;;;19.20;48.90
3544;BME280;1786;52.870;9.578;2024-03-02T11:06:51;99532.16;;;19.45;47.45
3544;BME280;1786;52.870;9.578;2024-03-02T11:09:21;99527.09;;;20.03;46.91
3544;BME280;1786;52.870;9.578;2024-03-02T11:14:51;99532.44;;;20.18;46.33
3544;BME280;1786;52.870;9.578;2024-03-02T11:17:21;99537.59;;;19.52;46.46
3544;BME280;1786;52.870;9.578;2024-03-02T11:19:48;99525.50;;;18.95;47.18
3544;BME280;1786;52.870;9.578;2024-03-02T11:22:16;99525.81;;;18.92;48.33
3544;BME280;1786;52.870;9.578;2024-03-02T11:24:50;99527.53;;;19.54;47.12
3544;BME280;1786;52.870;9.578;2024-03-02T11:33:02;99531.66;;;19.42;46.73
3544;BME280;1786;52.870;9.578;2024-03-02T11:35:44;99534.00;;;19.60;46.80
3544;BME280;1786;52.870;9.578;2024-03-02T11:38:14;99531.56;;;19.35;46.70
3544;BME280;1786;52.870;9.578;2024-03-02T11:40:41;99530.53;;;19.36;47.12
3544;BME280;1786;52.870;9.578;2024-03-02T11:43:09;99526.22;;;19.50;46.73
3544;BME280;1786;52.870;9.578;2024-03-02T11:45:37;99518.75;;;19.45;47.20
3544;BME280;1786;52.870;9.578;2024-03-02T11:48:10;99522.16;;;19.39;47.07
3544;BME280;1786;52.870;9.578;2024-03-02T11:50:47;99530.72;;;19.35;47.21
3544;BME280;1786;52.870;9.578;2024-03-02T11:53:15;99526.41;;;19.72;46.72
3544;BME280;1786;52.870;9.578;2024-03-02T11:55:44;99527.00;;;19.59;47.16
3544;BME280;1786;52.870;9.578;2024-03-02T11:58:14;99524.97;;;20.14;46.46
3544;BME280;1786;52.870;9.578;2024-03-02T12:00:41;99525.41;;;20.17;46.07
3544;BME280;1786;52.870;9.578;2024-03-02T12:03:11;99524.31;;;19.97;45.94
3544;BME280;1786;52.870;9.578;2024-03-02T12:05:38;99514.50;;;19.74;46.13
3544;BME280;1786;52.870;9.578;2024-03-02T12:08:06;99527.06;;;19.74;46.86
3544;BME280;1786;52.870;9.578;2024-03-02T12:10:35;99521.22;;;19.47;46.76
3544;BME280;1786;52.870;9.578;2024-03-02T12:13:03;99515.69;;;19.11;47.62
3544;BME280;1786;52.870;9.578;2024-03-02T12:15:32;99525.41;;;19.87;46.45
3544;BME280;1786;52.870;9.578;2024-03-02T12:18:01;99513.00;;;19.72;46.88
3544;BME280;1786;52.870;9.578;2024-03-02T12:20:30;99511.34;;;19.48;47.45
3544;BME280;1786;52.870;9.578;2024-03-02T12:22:59;99510.44;;;19.40;46.80
3544;BME280;1786;52.870;9.578;2024-03-02T12:25:26;99507.66;;;19.86;46.61
3544;BME280;1786;52.870;9.578;2024-03-02T12:27:55;99506.22;;;19.23;47.21
3544;BME280;1786;52.870;9.578;2024-03-02T12:30:23;99505.53;;;19.44;47.43
3544;BME280;1786;52.870;9.578;2024-03-02T12:32:50;99507.41;;;19.58;46.83
3544;BME280;1786;52.870;9.578;2024-03-02T12:35:17;99507.53;;;19.04;47.13
3544;BME280;1786;52.870;9.578;2024-03-02T12:37:46;99496.34;;;19.00;48.16
3544;BME280;1786;52.870;9.578;2024-03-02T12:40:15;99502.47;;;19.47;46.92
3544;BME280;1786;52.870;9.578;2024-03-02T12:42:45;99500.91;;;20.05;47.48
3544;BME280;1786;52.870;9.578;2024-03-02T12:45:12;99502.31;;;19.86;46.09
3544;BME280;1786;52.870;9.578;2024-03-02T12:47:40;99507.38;;;20.26;46.63
3544;BME280;1786;52.870;9.578;2024-03-02T12:50:08;99494.84;;;20.48;45.32
3544;BME280;1786;52.870;9.578;2024-03-02T12:52:36;99508.81;;;20.43;45.88
3544;BME280;1786;52.870;9.578;2024-03-02T12:55:06;99499.66;;;20.67;45.36
3544;BME280;1786;52.870;9.578;2024-03-02T12:57:34;99500.47;;;20.02;46.13
3544;BME280;1786;52.870;9.578;2024-03-02T13:00:03;99486.75;;;20.26;45.72
3544;BME280;1786;52.870;9.578;2024-03-02T13:02:40;99488.84;;;20.61;45.57
3544;BME280;1786;52.870;9.578;2024-03-02T13:05:07;99489.72;;;21.47;44.53
3544;BME280;1786;52.870;9.578;2024-03-02T13:07:38;99489.13;;;20.87;44.72
3544;BME280;1786;52.870;9.578;2024-03-02T13:10:06;99488.03;;;20.30;45.63
3544;BME280;1786;52.870;9.578;2024-03-02T13:12:35;99482.22;;;20.27;45.11
3544;BME280;1786;52.870;9.578;2024-03-02T13:15:03;99487.44;;;20.50;44.90
3544;BME280;1786;52.870;9.578;2024-03-02T13:17:30;99492.38;;;20.46;43.79
3544;BME280;1786;52.870;9.578;2024-03-02T13:20:04;99486.88;;;20.03;45.12
3544;BME280;1786;52.870;9.578;2024-03-02T13:22:35;99478.22;;;20.38;44.88
3544;BME280;1786;52.870;9.578;2024-03-02T13:25:02;99478.44;;;20.72;44.62
3544;BME280;1786;52.870;9.578;2024-03-02T13:27:32;99473.00;;;20.51;44.89
3544;BME280;1786;52.870;9.578;2024-03-02T13:30:00;99466.81;;;19.99;45.26
3544;BME280;1786;52.870;9.578;2024-03-02T13:32:27;99475.41;;;20.46;45.07
3544;BME280;1786;52.870;9.578;2024-03-02T13:34:54;99478.31;;;20.81;44.28